Time;durP1;ratioP1;P1;durP2;ratioP2;P2;SDS_P1;SDS_P2;PMS_P1;PMS_P2;Temp;Humidity;BMP_temperature;BMP_pressure;BME280_temperature;BME280_humidity;BME280_pressure;Samples;Min_cycle;Max_cycle;Signal;HPM_P1;HPM_P2
2023/03/20 00:01:49;;;;;;;23.13;12.63;;;11.50;99.90;;;;;;4770800;30;20080;-76
2023/03/20 00:04:14;;;;;;;22.90;11.30;;;11.50;99.90;;;;;;4770972;30;20114;-75
2023/03/20 00:06:40;;;;;;;21.02;11.02;;;11.50;99.90;;;;;;4786837;30;20114;-75
2023/03/20 00:09:07;;;;;;;19.88;9.80;;;11.50;99.90;;;;;;4787317;29;20519;-75
2023/03/20 00:11:57;;;;;;;19.02;10.85;;;11.60;99.90;;;;;;4770906;30;20032;-75
2023/03/20 00:14:23;;;;;;;18.50;9.80;;;11.60;99.90;;;;;;4787130;30;20036;-75
2023/03/20 00:16:50;;;;;;;16.90;10.35;;;11.60;99.90;;;;;;4786814;30;20500;-76
2023/03/20 00:19:19;;;;;;;15.25;9.23;;;11.60;99.90;;;;;;4787302;30;20055;-75
2023/03/20 00:21:46;;;;;;;17.80;9.52;;;11.60;99.90;;;;;;4770341;30;20143;-75
2023/03/20 00:24:13;;;;;;;14.23;9.88;;;11.70;99.90;;;;;;4786796;30;20083;-75
2023/03/20 00:26:39;;;;;;;15.85;10.43;;;11.70;99.90;;;;;;4770326;30;20092;-75
2023/03/20 00:29:06;;;;;;;20.13;10.18;;;11.80;99.90;;;;;;4770794;29;20052;-76
2023/03/20 00:31:37;;;;;;;17.48;10.80;;;11.80;99.90;;;;;;4785423;30;20057;-75
2023/03/20 00:34:11;;;;;;;15.45;10.25;;;11.80;99.90;;;;;;4786036;29;20027;-75
2023/03/20 00:36:37;;;;;;;18.30;10.65;;;11.80;99.90;;;;;;4790340;30;20031;-75
2023/03/20 00:39:03;;;;;;;16.60;10.82;;;11.70;99.90;;;;;;4790022;29;20065;-75
2023/03/20 00:41:34;;;;;;;14.48;10.18;;;11.70;99.90;;;;;;4789159;29;20028;-75
2023/03/20 00:44:29;;;;;;;17.90;10.25;;;11.60;99.90;;;;;;4789119;30;20476;-75
2023/03/20 00:47:00;;;;;;;21.25;11.38;;;11.60;99.90;;;;;;4786253;30;20141;-75
2023/03/20 00:49:29;;;;;;;19.88;10.95;;;11.50;99.90;;;;;;4788926;30;20062;-75
2023/03/20 00:51:55;;;;;;;17.75;10.77;;;11.50;99.90;;;;;;4789878;30;20031;-74
2023/03/20 00:54:21;;;;;;;16.13;11.13;;;11.40;99.90;;;;;;4789679;29;20429;-74
2023/03/20 00:57:01;;;;;;;18.00;11.68;;;11.50;99.90;;;;;;4774067;30;20422;-74
2023/03/20 00:59:31;;;;;;;19.65;12.02;;;11.40;99.90;;;;;;4790232;30;20090;-75
2023/03/20 01:01:57;;;;;;;20.02;11.25;;;11.40;99.90;;;;;;4788627;30;20449;-75
2023/03/20 01:04:26;;;;;;;19.25;11.90;;;11.40;99.90;;;;;;4790036;30;20052;-75
2023/03/20 01:06:51;;;;;;;17.63;11.82;;;11.50;99.90;;;;;;4789132;30;20134;-75
2023/03/20 01:09:17;;;;;;;20.00;12.90;;;11.50;99.90;;;;;;4774939;30;20059;-74
2023/03/20 01:11:44;;;;;;;20.33;12.25;;;11.50;99.90;;;;;;4790459;30;20058;-75
2023/03/20 01:14:13;;;;;;;21.20;12.80;;;11.50;99.90;;;;;;4789870;30;20027;-75
2023/03/20 01:16:39;;;;;;;20.60;14.20;;;11.50;99.90;;;;;;4788244;30;20071;-78
2023/03/20 01:19:05;;;;;;;22.00;14.60;;;11.40;99.90;;;;;;4773507;30;20058;-75
2023/03/20 01:21:30;;;;;;;20.88;13.40;;;11.30;99.90;;;;;;4789734;29;20376;-74
2023/03/20 01:23:56;;;;;;;22.17;14.40;;;11.20;99.90;;;;;;4789668;30;20047;-74
2023/03/20 01:26:43;;;;;;;23.88;15.05;;;11.30;99.90;;;;;;4773446;30;20062;-75
2023/03/20 01:29:23;;;;;;;25.58;15.32;;;11.20;99.90;;;;;;4787612;30;20051;-74
2023/03/20 01:31:49;;;;;;;25.52;16.45;;;11.10;99.90;;;;;;4789595;30;20114;-75
2023/03/20 01:34:15;;;;;;;24.50;16.20;;;11.10;99.90;;;;;;4789300;30;20082;-75
2023/03/20 01:36:53;;;;;;;26.23;15.00;;;11.10;99.90;;;;;;4758221;30;20054;-75
2023/03/20 01:39:27;;;;;;;22.58;13.88;;;11.10;99.90;;;;;;4789002;30;20031;-75
2023/03/20 01:41:53;;;;;;;25.13;13.00;;;11.10;99.90;;;;;;4787940;30;20035;-75
2023/03/20 01:44:22;;;;;;;22.20;12.35;;;11.10;99.90;;;;;;4789022;29;20035;-75
2023/03/20 01:46:50;;;;;;;24.95;12.00;;;11.00;99.90;;;;;;4772069;30;20046;-74
2023/03/20 01:49:19;;;;;;;23.02;12.50;;;11.00;99.90;;;;;;4787828;30;20027;-75
2023/03/20 01:51:49;;;;;;;22.25;11.82;;;10.90;99.90;;;;;;4789025;30;20034;-74
2023/03/20 01:54:20;;;;;;;22.92;12.65;;;11.00;99.90;;;;;;4788678;30;20547;-75
2023/03/20 01:56:58;;;;;;;22.58;11.45;;;11.00;99.90;;;;;;4789089;30;20035;-75
2023/03/20 01:59:25;;;;;;;24.08;11.77;;;11.00;99.90;;;;;;4772959;30;20114;-75
2023/03/20 02:01:51;;;;;;;23.88;11.32;;;11.00;99.90;;;;;;4788791;30;20023;-75
2023/03/20 02:04:22;;;;;;;22.17;11.52;;;11.00;99.90;;;;;;4788922;30;20118;-76
2023/03/20 02:06:48;;;;;;;26.63;12.38;;;11.00;99.90;;;;;;4788772;30;20032;-77
2023/03/20 02:09:14;;;;;;;22.88;11.73;;;11.00;99.90;;;;;;4772382;30;20095;-75
2023/03/20 02:11:42;;;;;;;20.10;11.35;;;10.90;99.90;;;;;;4787487;30;20129;-76
2023/03/20 02:14:09;;;;;;;22.98;12.10;;;11.00;99.90;;;;;;4772426;30;20043;-75
2023/03/20 02:16:34;;;;;;;21.70;10.35;;;11.00;99.90;;;;;;4788605;30;20079;-78
2023/03/20 02:19:00;;;;;;;18.63;9.25;;;11.00;99.90;;;;;;4772037;29;20046;-75
2023/03/20 02:21:38;;;;;;;20.70;8.75;;;11.00;99.90;;;;;;4788735;30;20031;-74
2023/03/20 02:24:38;;;;;;;12.55;6.55;;;10.90;99.90;;;;;;4788224;30;20032;-75
2023/03/20 02:27:22;;;;;;;12.93;5.93;;;10.90;99.90;;;;;;4771901;30;20035;-80
2023/03/20 02:29:56;;;;;;;9.30;5.50;;;10.80;99.90;;;;;;4771917;30;20055;-75
2023/03/20 02:32:25;;;;;;;10.35;5.47;;;10.90;99.90;;;;;;4771965;30;20038;-75
2023/03/20 02:35:12;;;;;;;9.20;5.68;;;10.80;99.90;;;;;;4772281;30;20039;-75
2023/03/20 02:38:11;;;;;;;8.75;5.50;;;10.80;99.90;;;;;;4772101;30;20495;-74
2023/03/20 02:40:55;;;;;;;12.82;5.57;;;10.80;99.90;;;;;;4771883;30;20034;-74
2023/03/20 02:43:30;;;;;;;10.82;5.63;;;10.80;99.90;;;;;;4788385;30;20035;-75
2023/03/20 02:46:21;;;;;;;9.40;4.82;;;10.80;99.90;;;;;;4787816;29;20062;-75
2023/03/20 02:49:02;;;;;;;7.28;4.03;;;10.80;99.90;;;;;;4788078;30;20031;-74
2023/03/20 02:51:52;;;;;;;7.93;3.75;;;10.80;99.90;;;;;;4786682;30;20039;-74
2023/03/20 02:54:24;;;;;;;7.72;3.95;;;10.90;99.90;;;;;;4787987;30;20030;-76
2023/03/20 02:57:07;;;;;;;9.52;4.53;;;10.90;99.90;;;;;;4788248;29;20038;-76
2023/03/20 02:59:42;;;;;;;;;;;10.90;99.90;;;;;;4774573;30;20410;-75
2023/03/20 03:02:11;;;;;;;9.05;4.00;;;10.90;99.90;;;;;;4792842;30;19912;-75
2023/03/20 03:04:53;;;;;;;7.30;4.10;;;11.00;99.90;;;;;;4794635;30;20151;-74
2023/03/20 03:07:25;;;;;;;8.73;4.00;;;11.00;99.90;;;;;;4788054;30;20067;-75
2023/03/20 03:09:51;;;;;;;7.88;3.78;;;10.90;99.90;;;;;;4786634;30;20113;-77
2023/03/20 03:12:22;;;;;;;10.65;4.30;;;10.90;99.90;;;;;;4787814;30;20529;-74
2023/03/20 03:14:55;;;;;;;8.13;4.18;;;10.90;99.90;;;;;;4786492;30;20371;-74
2023/03/20 03:17:24;;;;;;;7.63;4.57;;;11.00;99.90;;;;;;4787752;30;20100;-75
2023/03/20 03:19:54;;;;;;;9.68;4.53;;;11.00;99.90;;;;;;4787712;29;20043;-75
2023/03/20 03:22:20;;;;;;;9.10;4.68;;;11.00;99.90;;;;;;4787724;30;20019;-75
2023/03/20 03:24:49;;;;;;;10.18;5.03;;;11.00;99.90;;;;;;4787416;30;20027;-75
2023/03/20 03:27:21;;;;;;;13.05;5.32;;;11.00;99.90;;;;;;4787319;29;20043;-75
2023/03/20 03:29:52;;;;;;;11.20;5.32;;;10.90;99.90;;;;;;4786195;30;20362;-75
2023/03/20 03:32:33;;;;;;;11.27;6.00;;;10.90;99.90;;;;;;4787867;29;20337;-75
2023/03/20 03:35:00;;;;;;;8.48;5.47;;;10.90;99.90;;;;;;4787441;30;20023;-75
2023/03/20 03:37:41;;;;;;;13.45;6.75;;;10.90;99.90;;;;;;4787157;30;20178;-75
2023/03/20 03:40:24;;;;;;;12.07;5.78;;;11.00;99.90;;;;;;4787527;30;20054;-75
2023/03/20 03:43:00;;;;;;;13.43;6.50;;;11.00;99.90;;;;;;4787313;30;20441;-75
2023/03/20 03:45:37;;;;;;;12.60;6.13;;;11.00;99.90;;;;;;4787140;29;20047;-75
2023/03/20 03:48:10;;;;;;;14.40;6.25;;;11.00;99.90;;;;;;4787527;30;20425;-75
2023/03/20 03:50:53;;;;;;;12.65;5.60;;;10.90;99.90;;;;;;4770930;30;20107;-75
2023/03/20 03:53:22;;;;;;;14.30;6.90;;;11.00;99.90;;;;;;4786766;29;20551;-76
2023/03/20 03:55:53;;;;;;;13.52;7.10;;;10.90;99.90;;;;;;4771160;30;20032;-75
2023/03/20 03:58:25;;;;;;;13.88;6.82;;;10.90;99.90;;;;;;4787147;30;20148;-78
2023/03/20 04:00:53;;;;;;;11.93;6.22;;;10.90;99.90;;;;;;4787240;30;20039;-75
2023/03/20 04:03:22;;;;;;;15.00;7.32;;;10.90;99.90;;;;;;4786971;30;20119;-76
2023/03/20 04:05:52;;;;;;;15.05;7.43;;;10.90;99.90;;;;;;4787429;30;20172;-76
2023/03/20 04:08:18;;;;;;;14.82;7.38;;;10.80;99.90;;;;;;4787272;29;20449;-75
2023/03/20 04:10:43;;;;;;;16.65;8.35;;;10.80;99.90;;;;;;4773983;30;20037;-75
2023/03/20 04:13:10;;;;;;;15.55;9.00;;;10.70;99.90;;;;;;4790996;30;20038;-75
2023/03/20 04:15:37;;;;;;;19.63;9.30;;;10.60;99.90;;;;;;4775059;30;20031;-75
2023/03/20 04:18:03;;;;;;;16.90;9.60;;;10.60;99.90;;;;;;4774802;30;20362;-75
2023/03/20 04:20:29;;;;;;;18.10;9.43;;;10.60;99.90;;;;;;4791289;30;20055;-75
2023/03/20 04:22:55;;;;;;;22.58;10.50;;;10.50;99.90;;;;;;4775169;30;20054;-75
2023/03/20 04:25:23;;;;;;;19.10;10.95;;;10.50;99.90;;;;;;4790994;29;20031;-76
2023/03/20 04:27:49;;;;;;;21.60;12.45;;;10.50;99.90;;;;;;4774907;30;20100;-75
2023/03/20 04:30:15;;;;;;;23.13;12.75;;;10.50;99.90;;;;;;4790861;30;20135;-75
2023/03/20 04:32:40;;;;;;;28.60;14.20;;;10.50;99.90;;;;;;4774778;30;20516;-75
2023/03/20 04:35:06;;;;;;;21.80;12.77;;;10.50;99.90;;;;;;4790939;30;20039;-75
2023/03/20 04:37:32;;;;;;;28.40;14.73;;;10.40;99.90;;;;;;4775069;30;20115;-75
2023/03/20 04:39:58;;;;;;;27.50;13.85;;;10.40;99.90;;;;;;4790801;29;20110;-75
2023/03/20 04:42:23;;;;;;;34.10;15.30;;;10.40;99.90;;;;;;4774818;30;20377;-75
2023/03/20 04:44:49;;;;;;;21.88;13.98;;;10.40;99.90;;;;;;4774831;30;20081;-76
2023/03/20 04:47:15;;;;;;;29.38;16.83;;;10.30;99.90;;;;;;4790585;30;20050;-75
2023/03/20 04:49:41;;;;;;;26.73;15.30;;;10.20;99.90;;;;;;4791493;29;20049;-75
2023/03/20 04:52:07;;;;;;;31.27;15.60;;;10.20;99.90;;;;;;4792084;30;20460;-76
2023/03/20 04:54:32;;;;;;;26.75;14.90;;;10.20;99.90;;;;;;4775031;30;20088;-75
2023/03/20 04:56:58;;;;;;;27.38;14.65;;;10.10;99.90;;;;;;4790579;30;20031;-75
2023/03/20 04:59:23;;;;;;;27.02;14.40;;;10.10;99.90;;;;;;4775618;30;20458;-81
2023/03/20 05:01:49;;;;;;;25.90;14.23;;;10.20;99.90;;;;;;4776281;30;20036;-81
2023/03/20 05:04:15;;;;;;;29.90;15.73;;;10.20;99.90;;;;;;4791694;30;20031;-81
2023/03/20 05:06:42;;;;;;;25.63;15.32;;;10.10;99.90;;;;;;4791596;30;20071;-81
2023/03/20 05:09:11;;;;;;;26.00;14.82;;;10.10;99.90;;;;;;4791539;30;20369;-81
2023/03/20 05:11:36;;;;;;;29.33;15.15;;;10.10;99.90;;;;;;4792866;30;20076;-81
2023/03/20 05:14:03;;;;;;;27.50;14.35;;;10.10;99.90;;;;;;4792139;30;20461;-81
2023/03/20 05:16:29;;;;;;;27.30;14.63;;;10.10;99.90;;;;;;4775091;30;20040;-81
2023/03/20 05:18:54;;;;;;;24.45;13.82;;;10.00;99.90;;;;;;4775921;30;20027;-81
2023/03/20 05:21:20;;;;;;;22.35;12.52;;;10.00;99.90;;;;;;4793036;29;20479;-81
2023/03/20 05:23:46;;;;;;;20.15;12.32;;;10.00;99.90;;;;;;4797429;30;20031;-81
2023/03/20 05:26:11;;;;;;;19.05;11.40;;;10.00;99.90;;;;;;4778964;30;20045;-81
2023/03/20 05:28:37;;;;;;;25.90;12.82;;;10.00;99.90;;;;;;4779836;30;20114;-81
2023/03/20 05:31:03;;;;;;;20.65;11.85;;;10.00;99.90;;;;;;4785914;30;20463;-82
2023/03/20 05:33:28;;;;;;;19.83;11.80;;;10.00;99.90;;;;;;4804606;30;20064;-81
2023/03/20 05:35:54;;;;;;;21.10;11.00;;;10.00;99.90;;;;;;4774816;30;20031;-81
2023/03/20 05:38:21;;;;;;;20.58;11.50;;;10.00;99.90;;;;;;4760042;30;20377;-81
2023/03/20 05:40:48;;;;;;;22.48;11.02;;;10.00;99.90;;;;;;4775201;30;20034;-81
2023/03/20 05:43:14;;;;;;;20.60;10.80;;;10.00;99.90;;;;;;4775017;30;20088;-81
2023/03/20 05:45:41;;;;;;;17.60;10.25;;;9.90;99.90;;;;;;4775184;30;20043;-81
2023/03/20 05:48:07;;;;;;;18.67;10.38;;;9.90;99.90;;;;;;4774024;30;20097;-76
2023/03/20 05:50:33;;;;;;;18.63;10.40;;;9.90;99.90;;;;;;4791736;30;20130;-81
2023/03/20 05:52:58;;;;;;;19.70;9.30;;;9.90;99.90;;;;;;4774977;30;20425;-81
2023/03/20 05:55:24;;;;;;;17.13;10.02;;;9.90;99.90;;;;;;4791461;30;20413;-81
2023/03/20 05:57:50;;;;;;;19.60;10.38;;;9.90;99.90;;;;;;4790836;30;20392;-81
2023/03/20 06:00:16;;;;;;;19.45;9.80;;;10.00;99.90;;;;;;4776828;30;20042;-81
2023/03/20 06:02:41;;;;;;;19.45;9.65;;;9.90;99.90;;;;;;4775943;30;20036;-81
2023/03/20 06:05:07;;;;;;;17.60;9.35;;;10.00;99.90;;;;;;4775783;30;20055;-80
2023/03/20 06:07:33;;;;;;;18.10;9.98;;;10.00;99.90;;;;;;4791475;30;20043;-81
2023/03/20 06:09:59;;;;;;;19.58;9.27;;;10.00;99.90;;;;;;4776975;30;20035;-82
2023/03/20 06:12:24;;;;;;;17.05;9.40;;;10.00;99.90;;;;;;4792821;30;20042;-81
2023/03/20 06:14:50;;;;;;;14.80;9.02;;;10.00;99.90;;;;;;4779113;30;20036;-81
2023/03/20 06:17:19;;;;;;;21.38;9.00;;;10.10;99.90;;;;;;4798341;30;20425;-81
2023/03/20 06:19:44;;;;;;;18.10;8.73;;;10.00;99.90;;;;;;4802382;30;20019;-79
2023/03/20 06:22:10;;;;;;;19.77;9.52;;;10.00;99.90;;;;;;4801966;30;20031;-77
2023/03/20 06:24:37;;;;;;;17.33;9.23;;;10.00;99.90;;;;;;4795646;30;20083;-77
2023/03/20 06:27:02;;;;;;;16.60;8.43;;;10.00;99.90;;;;;;4783970;30;20038;-77
2023/03/20 06:29:28;;;;;;;16.13;8.57;;;10.00;99.90;;;;;;4778339;30;20048;-78
2023/03/20 06:31:54;;;;;;;18.40;9.52;;;10.00;99.90;;;;;;4787027;30;20062;-78
2023/03/20 06:34:19;;;;;;;17.48;8.40;;;10.00;99.90;;;;;;4796393;30;20096;-78
2023/03/20 06:36:45;;;;;;;15.95;9.10;;;10.00;99.90;;;;;;4771253;30;20045;-77
2023/03/20 06:39:11;;;;;;;18.55;9.93;;;10.10;99.90;;;;;;4771723;30;20068;-77
2023/03/20 06:41:38;;;;;;;16.02;8.63;;;10.10;99.90;;;;;;4771150;30;20028;-75
2023/03/20 06:44:03;;;;;;;19.45;8.63;;;10.00;99.90;;;;;;4772611;30;20043;-77
2023/03/20 06:46:29;;;;;;;16.83;9.07;;;10.10;99.90;;;;;;4786018;30;20043;-77
2023/03/20 06:48:55;;;;;;;15.80;8.63;;;10.10;99.90;;;;;;4771650;30;20039;-77
2023/03/20 06:51:20;;;;;;;16.73;9.35;;;10.20;99.90;;;;;;4772765;30;20043;-77
2023/03/20 06:53:46;;;;;;;16.35;8.10;;;10.30;99.90;;;;;;4771200;30;20036;-75
2023/03/20 06:56:12;;;;;;;23.77;9.52;;;10.30;99.90;;;;;;4770356;30;20114;-76
2023/03/20 06:58:37;;;;;;;19.83;9.25;;;10.30;99.90;;;;;;4769884;30;20036;-75
2023/03/20 07:01:12;;;;;;;17.77;8.57;;;10.20;99.90;;;;;;4770023;30;20043;-76
2023/03/20 07:03:38;;;;;;;16.42;8.55;;;10.20;99.90;;;;;;4771486;30;20039;-75
2023/03/20 07:06:03;;;;;;;18.17;8.77;;;10.20;99.90;;;;;;4769906;30;20036;-76
2023/03/20 07:08:29;;;;;;;23.23;9.77;;;10.20;99.90;;;;;;4770874;30;20477;-75
2023/03/20 07:10:55;;;;;;;17.75;9.65;;;10.20;99.90;;;;;;4784635;30;20478;-74
2023/03/20 07:13:20;;;;;;;16.45;8.52;;;10.20;99.90;;;;;;4771060;30;20457;-76
2023/03/20 07:15:46;;;;;;;17.17;8.50;;;10.10;99.90;;;;;;4771421;30;20039;-75
2023/03/20 07:18:12;;;;;;;19.67;9.32;;;10.10;99.90;;;;;;4769619;30;20051;-75
2023/03/20 07:20:37;;;;;;;16.90;8.10;;;10.10;99.90;;;;;;4770728;30;20042;-75
2023/03/20 07:23:03;;;;;;;18.65;9.77;;;10.20;99.90;;;;;;4769567;30;20393;-76
2023/03/20 07:25:29;;;;;;;18.85;9.77;;;10.10;99.90;;;;;;4770429;30;20076;-75
2023/03/20 07:27:55;;;;;;;22.92;9.07;;;10.10;99.90;;;;;;4771154;30;20120;-75
2023/03/20 07:30:20;;;;;;;16.13;9.20;;;10.20;99.90;;;;;;4782831;30;20489;-75
2023/03/20 07:32:47;;;;;;;19.50;9.90;;;10.20;99.90;;;;;;4788544;30;20105;-75
2023/03/20 07:35:13;;;;;;;19.38;9.48;;;10.20;99.90;;;;;;4787179;30;20043;-74
2023/03/20 07:37:39;;;;;;;19.15;9.20;;;10.10;99.90;;;;;;4771997;30;20039;-75
2023/03/20 07:40:06;;;;;;;22.35;8.18;;;10.10;99.90;;;;;;4788456;30;20043;-76
2023/03/20 07:42:31;;;;;;;20.45;9.15;;;10.10;99.90;;;;;;4772416;30;20100;-74
2023/03/20 07:44:57;;;;;;;18.45;8.95;;;10.00;99.90;;;;;;4787804;29;20035;-76
2023/03/20 07:47:22;;;;;;;18.83;9.27;;;10.00;99.90;;;;;;4788349;30;20413;-75
2023/03/20 07:49:48;;;;;;;22.15;9.23;;;10.10;99.90;;;;;;4795603;30;20019;-78
2023/03/20 07:52:14;;;;;;;17.45;8.63;;;10.10;99.90;;;;;;4788996;30;20055;-79
2023/03/20 07:54:43;;;;;;;17.20;9.07;;;10.10;99.90;;;;;;4788171;30;20035;-79
2023/03/20 07:57:09;;;;;;;23.13;9.48;;;10.10;99.90;;;;;;4801797;30;20484;-78
2023/03/20 07:59:35;;;;;;;20.77;8.60;;;10.10;99.90;;;;;;4785845;30;20096;-79
2023/03/20 08:02:01;;;;;;;19.98;8.43;;;10.10;99.90;;;;;;4800909;30;20040;-80
2023/03/20 08:04:26;;;;;;;20.45;8.27;;;10.10;99.90;;;;;;4801733;30;20158;-80
2023/03/20 08:06:52;;;;;;;15.77;8.70;;;10.20;99.90;;;;;;4800562;30;20064;-78
2023/03/20 08:09:18;;;;;;;18.75;8.38;;;10.20;99.90;;;;;;4778919;30;20086;-79
2023/03/20 08:11:44;;;;;;;15.63;7.53;;;10.10;99.90;;;;;;4801744;30;20424;-81
2023/03/20 08:14:10;;;;;;;17.02;7.88;;;10.20;99.90;;;;;;4796672;30;20520;-76
2023/03/20 08:16:36;;;;;;;16.40;7.20;;;10.20;99.90;;;;;;4788065;30;20126;-76
2023/03/20 08:19:03;;;;;;;15.43;7.32;;;10.20;99.90;;;;;;4772280;30;20035;-79
2023/03/20 08:21:30;;;;;;;18.15;7.32;;;10.20;99.90;;;;;;4772367;30;20042;-78
2023/03/20 08:23:57;;;;;;;17.17;7.97;;;10.20;99.90;;;;;;4773497;30;20043;-78
2023/03/20 08:26:23;;;;;;;15.35;7.80;;;10.20;99.90;;;;;;4788501;30;20031;-79
2023/03/20 08:28:49;;;;;;;16.45;7.55;;;10.10;99.90;;;;;;4789338;30;20042;-78
2023/03/20 08:31:16;;;;;;;15.77;7.50;;;10.10;99.90;;;;;;4788118;30;20469;-78
2023/03/20 08:33:43;;;;;;;17.30;6.47;;;10.10;99.90;;;;;;4788055;30;20035;-78
2023/03/20 08:36:08;;;;;;;18.00;6.68;;;10.00;99.90;;;;;;4787824;30;20034;-78
2023/03/20 08:38:34;;;;;;;15.57;6.68;;;10.10;99.90;;;;;;4787785;30;20031;-78
2023/03/20 08:41:00;;;;;;;18.00;7.28;;;10.10;99.90;;;;;;4788313;30;20350;-78
2023/03/20 08:43:26;;;;;;;15.77;7.28;;;10.10;99.90;;;;;;4787784;30;20381;-78
2023/03/20 08:45:52;;;;;;;23.73;7.95;;;10.10;99.90;;;;;;4787872;30;20043;-78
2023/03/20 08:48:17;;;;;;;15.85;7.38;;;10.10;99.90;;;;;;4787843;30;20047;-78
2023/03/20 08:50:43;;;;;;;19.92;7.30;;;10.10;99.90;;;;;;4771957;30;20046;-76
2023/03/20 08:53:09;;;;;;;16.85;7.18;;;10.20;99.90;;;;;;4788171;30;20041;-76
2023/03/20 08:55:35;;;;;;;17.83;7.57;;;10.20;99.90;;;;;;4772691;30;20035;-77
2023/03/20 08:58:01;;;;;;;15.05;6.13;;;10.20;99.90;;;;;;4790205;30;20039;-76
2023/03/20 09:00:26;;;;;;;16.35;6.65;;;10.20;99.90;;;;;;4790957;30;20122;-75
2023/03/20 09:02:52;;;;;;;16.00;7.10;;;10.10;99.90;;;;;;4791206;30;20039;-76
2023/03/20 09:05:18;;;;;;;20.17;6.30;;;10.20;99.90;;;;;;4790865;30;20453;-76
2023/03/20 09:07:44;;;;;;;13.23;5.90;;;10.20;99.90;;;;;;4791105;30;20412;-76
2023/03/20 09:10:11;;;;;;;13.95;6.22;;;10.30;99.90;;;;;;4791815;30;20126;-76
2023/03/20 09:12:37;;;;;;;14.70;6.00;;;10.30;99.90;;;;;;4791103;30;20031;-76
2023/03/20 09:15:04;;;;;;;19.50;6.78;;;10.30;99.90;;;;;;4791155;30;20034;-75
2023/03/20 09:17:30;;;;;;;17.13;6.50;;;10.30;99.90;;;;;;4790095;30;20043;-77
2023/03/20 09:19:56;;;;;;;15.45;5.82;;;10.30;99.90;;;;;;4775698;30;20579;-76
2023/03/20 09:22:22;;;;;;;15.10;6.30;;;10.30;99.90;;;;;;4790918;30;20039;-76
2023/03/20 09:24:48;;;;;;;12.30;4.80;;;10.20;99.90;;;;;;4789778;30;20035;-76
2023/03/20 09:27:14;;;;;;;14.50;5.18;;;10.30;99.90;;;;;;4791112;30;20529;-73
2023/03/20 09:29:42;;;;;;;15.93;5.60;;;10.30;99.90;;;;;;4804015;30;20063;-78
2023/03/20 09:32:14;;;;;;;16.73;5.18;;;10.30;99.90;;;;;;4806529;30;20040;-80
2023/03/20 09:34:40;;;;;;;14.57;4.97;;;10.40;99.90;;;;;;4809033;30;20035;-80
2023/03/20 09:37:06;;;;;;;11.90;4.13;;;10.40;99.90;;;;;;4790475;30;20047;-80
2023/03/20 09:39:33;;;;;;;13.75;5.32;;;10.40;99.90;;;;;;4792559;30;20130;-79
2023/03/20 09:42:19;;;;;;;11.18;4.72;;;10.30;99.90;;;;;;4793197;30;20070;-80
2023/03/20 09:44:52;;;;;;;12.55;4.50;;;10.30;99.90;;;;;;4808679;30;20031;-80
2023/03/20 09:47:47;;;;;;;10.40;4.63;;;10.30;99.90;;;;;;4808976;30;20118;-80
2023/03/20 09:50:24;;;;;;;11.68;4.05;;;10.30;99.90;;;;;;4806842;30;20027;-80
2023/03/20 09:52:58;;;;;;;13.57;5.53;;;10.30;99.90;;;;;;4806942;30;20346;-79
2023/03/20 09:55:52;;;;;;;13.77;4.65;;;10.30;99.90;;;;;;4807531;30;20015;-80
2023/03/20 09:58:23;;;;;;;18.20;5.63;;;10.20;99.90;;;;;;4802971;30;20187;-79
2023/03/20 10:00:49;;;;;;;13.45;4.57;;;10.20;99.90;;;;;;4807617;30;20031;-81
2023/03/20 10:03:24;;;;;;;12.23;4.63;;;10.10;99.90;;;;;;4809004;30;20031;-80
2023/03/20 10:06:03;;;;;;;14.95;5.35;;;10.10;99.90;;;;;;4807878;30;20024;-79
2023/03/20 10:08:37;;;;;;;12.73;5.03;;;10.20;99.90;;;;;;4808353;29;20035;-80
2023/03/20 10:11:09;;;;;;;10.70;5.32;;;10.20;99.90;;;;;;4807914;30;20402;-80
2023/03/20 10:14:02;;;;;;;14.55;6.15;;;10.20;99.90;;;;;;4791825;30;20087;-81
2023/03/20 10:16:46;;;;;;;;;;;10.30;99.90;;;;;;4810817;30;20042;-81
2023/03/20 10:19:12;;;;;;;;;;;10.30;99.90;;;;;;4806673;30;19897;-80
2023/03/20 10:21:44;;;;;;;13.18;5.70;;;10.30;99.90;;;;;;4796924;30;20008;-78
2023/03/20 10:24:25;;;;;;;15.23;5.35;;;10.30;99.90;;;;;;4790785;30;20524;-79
2023/03/20 10:26:53;;;;;;;12.85;4.50;;;10.20;99.90;;;;;;4789958;30;20126;-78
2023/03/20 10:29:52;;;;;;;11.82;4.78;;;10.30;99.90;;;;;;4789559;30;20051;-78
2023/03/20 10:32:22;;;;;;;10.80;4.28;;;10.30;99.90;;;;;;4789873;30;20091;-77
2023/03/20 10:35:25;;;;;;;14.23;5.68;;;10.30;99.90;;;;;;4789576;30;20023;-77
2023/03/20 10:37:54;;;;;;;13.75;5.53;;;10.20;99.90;;;;;;4793767;30;20061;-78
2023/03/20 10:40:35;;;;;;;12.38;4.63;;;10.30;99.90;;;;;;4790431;30;20114;-77
2023/03/20 10:43:24;;;;;;;13.73;5.25;;;10.40;99.90;;;;;;4789332;30;20485;-77
2023/03/20 10:46:01;;;;;;;13.82;4.35;;;10.40;99.90;;;;;;4788711;30;20035;-78
2023/03/20 10:48:37;;;;;;;15.07;4.97;;;10.40;99.90;;;;;;4789813;30;20377;-77
2023/03/20 10:51:05;;;;;;;14.65;4.10;;;10.50;99.90;;;;;;4788917;30;20063;-77
2023/03/20 10:53:46;;;;;;;10.48;3.97;;;10.50;99.90;;;;;;4789676;30;20043;-78
2023/03/20 10:56:29;;;;;;;13.20;4.43;;;10.50;99.90;;;;;;4789236;30;20031;-77
2023/03/20 10:59:22;;;;;;;10.45;3.53;;;10.60;99.90;;;;;;4789730;30;20043;-77
2023/03/20 11:01:48;;;;;;;14.02;3.67;;;10.70;99.90;;;;;;4789477;30;20027;-77
2023/03/20 11:04:14;;;;;;;14.48;3.00;;;10.70;99.90;;;;;;4773958;30;20122;-78
2023/03/20 11:06:58;;;;;;;6.50;3.08;;;10.70;99.90;;;;;;4773257;30;20047;-78
2023/03/20 11:09:25;;;;;;;15.40;3.53;;;10.70;99.90;;;;;;4789584;30;20031;-76
2023/03/20 11:11:58;;;;;;;10.52;3.10;;;10.60;99.90;;;;;;4789317;30;20075;-75
2023/03/20 11:14:26;;;;;;;11.35;2.88;;;10.60;99.90;;;;;;4790114;30;20054;-79
2023/03/20 11:16:54;;;;;;;10.38;2.72;;;10.60;99.90;;;;;;4789384;30;20067;-79
2023/03/20 11:19:22;;;;;;;11.63;3.45;;;10.50;99.90;;;;;;4787745;29;20449;-78
2023/03/20 11:21:56;;;;;;;10.13;2.75;;;10.60;99.90;;;;;;4788701;30;20039;-78
2023/03/20 11:24:34;;;;;;;7.65;2.85;;;10.60;99.90;;;;;;4789510;30;20043;-78
2023/03/20 11:27:09;;;;;;;9.93;3.50;;;10.60;99.90;;;;;;4773642;30;20036;-76
2023/03/20 11:29:36;;;;;;;10.65;3.08;;;10.60;99.90;;;;;;4789220;30;20376;-75
2023/03/20 11:32:12;;;;;;;10.73;2.70;;;10.50;99.90;;;;;;4788489;30;20097;-77
2023/03/20 11:34:39;;;;;;;6.95;2.78;;;10.50;99.90;;;;;;4788636;30;20047;-77
2023/03/20 11:37:19;;;;;;;9.48;2.97;;;10.50;99.90;;;;;;4774389;30;20043;-75
2023/03/20 11:40:08;;;;;;;11.00;3.08;;;10.50;99.90;;;;;;4776666;30;20068;-78
2023/03/20 11:42:35;;;;;;;7.60;2.58;;;10.50;99.90;;;;;;4796374;30;20039;-81
2023/03/20 11:45:04;;;;;;;11.93;2.95;;;10.50;99.90;;;;;;4792421;30;20027;-80
2023/03/20 11:47:33;;;;;;;12.65;3.78;;;10.60;99.90;;;;;;4788299;30;20039;-76
2023/03/20 11:50:02;;;;;;;12.25;3.33;;;10.60;99.90;;;;;;4787712;30;20031;-76
2023/03/20 11:52:38;;;;;;;9.38;3.63;;;10.60;99.90;;;;;;4788507;30;20110;-76
2023/03/20 11:55:21;;;;;;;8.27;3.10;;;10.70;99.90;;;;;;4772293;30;20479;-76
2023/03/20 11:57:48;;;;;;;10.85;3.05;;;10.70;99.90;;;;;;4788782;30;20035;-76
2023/03/20 12:00:20;;;;;;;9.88;4.07;;;10.70;99.90;;;;;;4788272;30;20050;-75
2023/03/20 12:02:46;;;;;;;7.63;2.92;;;10.60;99.90;;;;;;4788225;30;20035;-75
2023/03/20 12:05:38;;;;;;;8.82;3.53;;;10.60;99.90;;;;;;4788105;30;20092;-75
2023/03/20 12:08:14;;;;;;;7.75;3.67;;;10.60;99.90;;;;;;4787404;30;20060;-76
2023/03/20 12:10:48;;;;;;;8.82;3.20;;;10.50;99.90;;;;;;4788346;30;20413;-76
2023/03/20 12:13:16;;;;;;;10.65;3.53;;;10.50;99.90;;;;;;4787922;30;20114;-76
2023/03/20 12:15:50;;;;;;;12.63;4.35;;;10.50;99.90;;;;;;4788215;30;20053;-76
2023/03/20 12:18:25;;;;;;;12.82;3.50;;;10.50;99.90;;;;;;4788078;30;20088;-77
2023/03/20 12:21:09;;;;;;;10.82;3.15;;;10.50;99.90;;;;;;4788078;30;20087;-76
2023/03/20 12:23:53;;;;;;;11.65;3.28;;;10.50;99.90;;;;;;4788481;30;20031;-76
2023/03/20 12:26:47;;;;;;;13.68;3.70;;;10.50;99.90;;;;;;4788612;30;20032;-77
2023/03/20 12:29:29;;;;;;;10.95;3.25;;;10.50;99.90;;;;;;4787925;30;20104;-77
2023/03/20 12:32:01;;;;;;;9.23;3.53;;;10.50;99.90;;;;;;4790998;30;20485;-77
2023/03/20 12:34:59;;;;;;;11.02;4.03;;;10.50;99.90;;;;;;4791618;30;20054;-77
2023/03/20 12:37:25;;;;;;;12.65;4.15;;;10.50;99.90;;;;;;4791578;30;20047;-77
2023/03/20 12:39:54;;;;;;;15.35;4.82;;;10.40;99.90;;;;;;4791536;30;20414;-77
2023/03/20 12:42:49;;;;;;;13.93;4.72;;;10.40;99.90;;;;;;4791272;30;20027;-77
2023/03/20 12:45:40;;;;;;;16.70;4.82;;;10.30;99.90;;;;;;4792323;30;20043;-77
2023/03/20 12:48:30;;;;;;;14.40;4.68;;;10.30;99.90;;;;;;4791742;30;20451;-77
2023/03/20 12:51:06;;;;;;;14.98;5.30;;;10.30;99.90;;;;;;4791333;30;20469;-76
2023/03/20 12:53:49;;;;;;;14.60;5.03;;;10.30;99.90;;;;;;4791358;30;20028;-76